Time;durP1;ratioP1;P1;durP2;ratioP2;P2;SDS_P1;SDS_P2;PMS_P1;PMS_P2;Temp;Humidity;BMP_temperature;BMP_pressure;BME280_temperature;BME280_humidity;BME280_pressure;Samples;Min_cycle;Max_cycle;Signal;HPM_P1;HPM_P2
2022/04/27 00:00:59;;;;;;;2.25;0.80;;;;;;;16.96;41.93;101388.41;4989412;28;20050;-70
2022/04/27 00:03:29;;;;;;;1.73;0.70;;;;;;;16.94;43.16;101393.63;4988412;28;20138;-71
2022/04/27 00:05:57;;;;;;;2.53;0.95;;;;;;;17.00;40.99;101394.59;4988232;28;20046;-70
2022/04/27 00:08:26;;;;;;;1.67;0.80;;;;;;;16.91;41.65;101388.34;4988446;28;20058;-70
2022/04/27 00:10:54;;;;;;;1.23;0.82;;;;;;;16.75;42.73;101391.59;4989300;28;20058;-71
2022/04/27 00:13:22;;;;;;;2.85;0.68;;;;;;;16.69;41.29;101387.13;4988593;28;20078;-70
2022/04/27 00:15:51;;;;;;;1.52;0.55;;;;;;;16.49;41.10;101383.34;4991664;28;20101;-71
2022/04/27 00:18:19;;;;;;;1.88;0.60;;;;;;;16.58;40.94;101386.09;4989467;28;20054;-74
2022/04/27 00:20:50;;;;;;;1.17;0.50;;;;;;;16.67;41.16;101382.75;4989167;28;20125;-71
2022/04/27 00:23:19;;;;;;;0.80;0.43;;;;;;;16.67;38.83;101388.84;4988125;28;20050;-72
2022/04/27 00:25:47;;;;;;;0.98;0.60;;;;;;;16.69;38.83;101391.50;4988134;28;20059;-72
2022/04/27 00:28:15;;;;;;;1.65;0.60;;;;;;;16.68;39.04;101401.06;4988657;28;20050;-73
2022/04/27 00:30:44;;;;;;;1.35;0.55;;;;;;;16.66;40.03;101402.78;4988798;28;20066;-73
2022/04/27 00:33:12;;;;;;;1.20;0.52;;;;;;;16.64;40.12;101393.16;4988931;28;20089;-72
2022/04/27 00:35:41;;;;;;;3.83;0.90;;;;;;;16.66;40.52;101397.56;4988673;28;20047;-73
2022/04/27 00:38:11;;;;;;;1.92;0.80;;;;;;;16.53;41.94;101411.28;4988222;28;20105;-74
2022/04/27 00:40:39;;;;;;;1.23;0.73;;;;;;;16.43;41.57;101410.25;4988156;28;20175;-74
2022/04/27 00:43:08;;;;;;;2.22;0.65;;;;;;;16.39;40.07;101398.00;4988567;28;20177;-72
2022/04/27 00:45:36;;;;;;;2.22;0.75;;;;;;;16.36;41.12;101405.81;4988783;28;20078;-73
2022/04/27 00:48:05;;;;;;;1.10;0.63;;;;;;;16.33;40.73;101397.91;4988657;28;20619;-71
2022/04/27 00:50:34;;;;;;;1.98;0.77;;;;;;;16.33;40.73;101413.56;4988619;28;20042;-73
2022/04/27 00:53:03;;;;;;;1.60;0.60;;;;;;;16.27;38.66;101403.03;4988655;28;20086;-73
2022/04/27 00:55:33;;;;;;;2.65;1.02;;;;;;;16.18;38.19;101408.13;4988660;28;20129;-73
2022/04/27 00:58:03;;;;;;;3.13;0.60;;;;;;;16.13;38.51;101416.75;4988727;28;20101;-73
2022/04/27 01:00:31;;;;;;;2.33;0.90;;;;;;;16.09;37.82;101412.31;4988434;28;20074;-74
2022/04/27 01:03:00;;;;;;;3.08;0.82;;;;;;;16.03;37.96;101416.53;4988369;28;20054;-71
2022/04/27 01:05:28;;;;;;;1.80;0.63;;;;;;;15.93;38.19;101410.28;4987849;28;20081;-72
2022/04/27 01:08:00;;;;;;;2.08;0.77;;;;;;;15.88;38.73;101423.25;4988724;28;20563;-72
2022/04/27 01:10:29;;;;;;;1.98;0.80;;;;;;;15.82;39.70;101420.50;4990688;28;20066;-72
2022/04/27 01:12:59;;;;;;;3.13;0.90;;;;;;;15.76;39.80;101432.56;4989005;28;20061;-73
2022/04/27 01:15:34;;;;;;;5.00;1.13;;;;;;;15.67;39.78;101428.03;4988571;28;20058;-75
2022/04/27 01:18:03;;;;;;;3.13;0.65;;;;;;;15.56;39.02;101422.59;4990359;28;20129;-73
2022/04/27 01:20:37;;;;;;;1.23;0.52;;;;;;;15.48;39.21;101434.59;4992061;28;20417;-74
2022/04/27 01:23:06;;;;;;;1.92;0.60;;;;;;;15.38;39.91;101427.47;4991355;28;20050;-74
2022/04/27 01:25:52;;;;;;;1.20;0.68;;;;;;;15.30;40.70;101435.09;4991195;28;20054;-74
2022/04/27 01:28:23;;;;;;;1.77;1.00;;;;;;;15.23;41.51;101428.91;4991983;28;20051;-74
2022/04/27 01:30:58;;;;;;;0.75;0.40;;;;;;;15.17;40.91;101433.97;4991575;28;20512;-74
2022/04/27 01:33:27;;;;;;;3.25;0.52;;;;;;;15.11;42.14;101446.88;4991247;28;20050;-74
2022/04/27 01:35:58;;;;;;;1.58;0.63;;;;;;;14.97;42.81;101443.97;4991985;28;20117;-75
2022/04/27 01:38:27;;;;;;;1.98;0.60;;;;;;;14.84;44.16;101445.44;4991434;28;20058;-73
2022/04/27 01:40:56;;;;;;;1.40;0.52;;;;;;;14.74;45.01;101447.78;4992233;28;20622;-73
2022/04/27 01:43:25;;;;;;;0.98;0.43;;;;;;;14.63;44.25;101450.97;4990798;28;20141;-72
2022/04/27 01:45:53;;;;;;;1.63;0.55;;;;;;;14.42;44.27;101440.03;4992173;28;20078;-72
2022/04/27 01:48:22;;;;;;;1.00;0.47;;;;;;;14.30;45.29;101440.59;4991526;28;20054;-71
2022/04/27 01:50:51;;;;;;;0.52;0.30;;;;;;;14.21;45.66;101450.78;4991405;28;20558;-71
2022/04/27 01:56:06;;;;;;;2.63;0.60;;;;;;;13.99;46.77;101450.19;4992072;28;20084;-73
2022/04/27 01:58:35;;;;;;;2.65;0.38;;;;;;;13.92;46.87;101448.28;4991698;28;20121;-73
2022/04/27 02:01:03;;;;;;;0.30;0.30;;;;;;;13.82;47.31;101454.97;4991539;28;20434;-73
2022/04/27 02:03:32;;;;;;;1.75;0.50;;;;;;;13.71;46.61;101458.97;4990562;28;20050;-73
2022/04/27 02:06:00;;;;;;;1.10;0.38;;;;;;;13.60;47.53;101456.06;4993634;28;20054;-74
2022/04/27 02:08:30;;;;;;;1.95;0.98;;;;;;;13.49;48.44;101451.41;4991676;28;20050;-74
2022/04/27 02:10:59;;;;;;;1.08;0.38;;;;;;;13.45;47.89;101460.84;4991500;28;20125;-73
2022/04/27 02:13:27;;;;;;;2.83;0.60;;;;;;;13.39;48.98;101476.25;4990781;28;20050;-73
2022/04/27 02:15:56;;;;;;;1.55;0.60;;;;;;;13.33;48.23;101465.69;4991226;28;20050;-73
2022/04/27 02:18:24;;;;;;;0.90;0.30;;;;;;;13.28;48.36;101469.88;4990934;28;20113;-72
2022/04/27 02:20:53;;;;;;;1.08;0.68;;;;;;;13.23;48.52;101468.81;4991288;28;20529;-75
2022/04/27 02:23:22;;;;;;;0.45;0.38;;;;;;;13.14;48.62;101472.88;4990541;28;20112;-74
2022/04/27 02:25:52;;;;;;;1.70;0.45;;;;;;;13.05;48.49;101471.75;4990898;28;20058;-73
2022/04/27 02:28:21;;;;;;;1.33;0.50;;;;;;;12.98;49.34;101479.31;4990570;28;20057;-73
2022/04/27 02:30:49;;;;;;;4.45;0.45;;;;;;;12.94;49.29;101471.41;4990508;28;20054;-73
2022/04/27 02:33:17;;;;;;;1.35;0.98;;;;;;;12.94;50.00;101472.31;4990996;28;20054;-74
2022/04/27 02:35:46;;;;;;;0.70;0.52;;;;;;;12.92;49.49;101478.28;4990895;28;20116;-73
2022/04/27 02:38:14;;;;;;;0.85;0.50;;;;;;;12.86;50.35;101472.88;4990359;28;20571;-74
2022/04/27 02:40:43;;;;;;;0.85;0.40;;;;;;;12.82;50.21;101484.00;4990468;28;20146;-73
2022/04/27 02:43:13;;;;;;;2.08;0.32;;;;;;;12.70;50.37;101467.19;4990291;28;20081;-74
2022/04/27 02:45:41;;;;;;;0.65;0.43;;;;;;;12.71;50.46;101483.66;4990741;28;20138;-74
2022/04/27 02:48:10;;;;;;;3.47;0.60;;;;;;;12.66;50.55;101491.28;4990558;28;20056;-75
2022/04/27 02:53:24;;;;;;;1.98;0.40;;;;;;;12.56;51.14;101484.03;4990338;28;20412;-73
2022/04/27 02:55:53;;;;;;;0.28;0.28;;;;;;;12.51;51.91;101485.63;4990694;28;20130;-73
2022/04/27 02:58:23;;;;;;;1.55;0.50;;;;;;;12.49;52.37;101488.16;4990554;28;20046;-74
2022/04/27 03:00:52;;;;;;;1.20;0.20;;;;;;;12.46;52.00;101488.06;4990950;28;20507;-73
2022/04/27 03:03:21;;;;;;;0.60;0.40;;;;;;;12.40;52.49;101476.59;4992446;28;20050;-74
2022/04/27 03:05:49;;;;;;;1.33;0.47;;;;;;;12.36;52.92;101481.66;4990927;28;20054;-75
2022/04/27 03:08:18;;;;;;;0.98;0.40;;;;;;;12.32;52.91;101487.59;4990242;28;20050;-71
2022/04/27 03:10:47;;;;;;;1.48;0.43;;;;;;;12.25;52.32;101488.19;4990159;28;20101;-72
2022/04/27 03:13:15;;;;;;;0.75;0.45;;;;;;;12.17;51.35;101488.78;4989779;28;20109;-72
2022/04/27 03:15:45;;;;;;;1.55;0.30;;;;;;;12.09;51.66;101498.88;4990307;28;20050;-71
2022/04/27 03:18:21;;;;;;;1.55;0.32;;;;;;;12.00;53.57;101494.22;4989937;28;20101;-80
2022/04/27 03:20:50;;;;;;;3.88;0.57;;;;;;;11.98;52.60;101502.78;4989675;28;20076;-72
2022/04/27 03:23:19;;;;;;;1.10;0.47;;;;;;;11.93;53.61;101505.22;4989491;28;20709;-72
2022/04/27 03:25:48;;;;;;;3.38;0.40;;;;;;;11.88;53.23;101492.09;4989537;28;20508;-71
2022/04/27 03:28:16;;;;;;;1.60;0.60;;;;;;;11.84;52.35;101492.78;4989661;28;20054;-72
2022/04/27 03:30:47;;;;;;;0.60;0.32;;;;;;;11.79;52.46;101490.84;4989512;28;20050;-71
2022/04/27 03:33:16;;;;;;;1.40;0.40;;;;;;;11.70;51.54;101487.13;4989644;28;20046;-75
2022/04/27 03:35:44;;;;;;;1.38;0.50;;;;;;;11.63;52.50;101494.59;4989439;28;20046;-72
2022/04/27 03:38:14;;;;;;;1.90;0.60;;;;;;;11.59;52.53;101503.97;4989901;28;20054;-72
2022/04/27 03:40:46;;;;;;;1.00;0.30;;;;;;;11.53;53.57;101499.44;4988925;28;20053;-72
2022/04/27 03:43:14;;;;;;;3.15;0.70;;;;;;;11.48;53.19;101508.75;4989224;28;20515;-72
2022/04/27 03:45:45;;;;;;;4.40;0.77;;;;;;;11.45;53.28;101507.72;4989551;28;20046;-73
2022/04/27 03:48:13;;;;;;;1.08;0.50;;;;;;;11.42;53.66;101508.50;4989449;28;20050;-72
2022/04/27 03:50:42;;;;;;;1.85;0.98;;;;;;;11.38;53.50;101504.03;4989241;28;20050;-72
2022/04/27 03:53:11;;;;;;;1.98;0.60;;;;;;;11.35;54.75;101508.22;4988758;28;20050;-72
2022/04/27 03:55:39;;;;;;;2.50;0.70;;;;;;;11.31;53.67;101509.81;4989442;28;20631;-74
2022/04/27 03:58:08;;;;;;;1.95;0.47;;;;;;;11.30;54.22;101513.22;4990880;28;20050;-72
2022/04/27 04:00:37;;;;;;;2.53;0.50;;;;;;;11.26;54.09;101519.97;4989929;28;20050;-72
2022/04/27 04:03:07;;;;;;;0.82;0.38;;;;;;;11.24;54.29;101515.56;4989236;28;20460;-74
2022/04/27 04:05:35;;;;;;;4.75;0.60;;;;;;;11.22;54.40;101512.91;4989489;28;20081;-71
2022/04/27 04:08:04;;;;;;;0.80;0.57;;;;;;;11.21;53.04;101520.66;4989516;28;20085;-72
2022/04/27 04:10:32;;;;;;;1.00;0.43;;;;;;;11.16;54.46;101517.88;4988574;28;20042;-70
2022/04/27 04:13:01;;;;;;;1.27;0.43;;;;;;;11.14;54.22;101524.69;4988819;28;20133;-73
2022/04/27 04:15:30;;;;;;;3.33;0.80;;;;;;;11.13;54.23;101525.50;4988806;28;20627;-73
2022/04/27 04:17:58;;;;;;;0.40;0.28;;;;;;;11.11;55.42;101530.66;4990133;28;20112;-76
2022/04/27 04:20:28;;;;;;;2.72;0.50;;;;;;;11.06;57.02;101521.81;4988722;28;20148;-76
2022/04/27 04:22:56;;;;;;;1.83;0.52;;;;;;;11.05;55.92;101522.63;4988624;28;20078;-76
2022/04/27 04:30:53;;;;;;;1.80;0.65;;;;;;;10.97;56.02;101529.22;4989580;28;20088;-73
2022/04/27 04:33:21;;;;;;;2.35;0.70;;;;;;;10.95;55.97;101535.13;4988659;28;20073;-74
2022/04/27 04:35:52;;;;;;;1.20;0.52;;;;;;;10.88;56.46;101539.16;4988743;28;20138;-73
2022/04/27 04:38:20;;;;;;;1.83;0.60;;;;;;;10.83;56.97;101533.81;4988416;28;20255;-75
2022/04/27 04:40:49;;;;;;;3.13;0.75;;;;;;;10.80;57.08;101533.69;4988915;28;20082;-76
2022/04/27 04:43:17;;;;;;;2.22;0.40;;;;;;;10.78;57.23;101534.47;4988196;28;20050;-75
2022/04/27 04:45:46;;;;;;;4.07;0.60;;;;;;;10.73;57.56;101528.22;4988915;28;20086;-75
2022/04/27 04:48:14;;;;;;;1.70;0.50;;;;;;;10.69;57.60;101530.66;4988468;28;20475;-74
2022/04/27 04:50:43;;;;;;;2.13;0.60;;;;;;;10.66;57.55;101530.53;4988819;28;20130;-74
2022/04/27 04:53:13;;;;;;;3.00;0.93;;;;;;;10.64;57.63;101532.19;4990361;28;20113;-74
2022/04/27 04:55:41;;;;;;;5.55;0.88;;;;;;;10.64;58.15;101531.31;4994710;28;20061;-76
2022/04/27 04:58:10;;;;;;;1.80;0.80;;;;;;;10.57;58.08;101530.16;4992710;28;20575;-74
2022/04/27 05:00:39;;;;;;;1.77;0.60;;;;;;;10.60;58.00;101540.63;4992629;28;20050;-73
2022/04/27 05:03:08;;;;;;;2.25;0.68;;;;;;;10.58;58.07;101536.22;4992174;28;20050;-75
2022/04/27 05:05:39;;;;;;;1.73;0.70;;;;;;;10.57;61.79;101540.50;4992571;28;20104;-75
2022/04/27 05:08:09;;;;;;;1.60;0.75;;;;;;;10.56;60.73;101533.56;4992357;28;20558;-75
2022/04/27 05:10:39;;;;;;;2.38;0.65;;;;;;;10.52;60.22;101538.56;4991807;28;20054;-75
2022/04/27 05:13:07;;;;;;;1.38;0.50;;;;;;;10.49;60.53;101539.31;4992333;28;20105;-75
2022/04/27 05:15:36;;;;;;;1.20;0.60;;;;;;;10.44;59.75;101540.81;4992133;28;20283;-75
2022/04/27 05:18:04;;;;;;;2.22;0.73;;;;;;;10.39;61.07;101539.72;4992584;28;20109;-75
2022/04/27 05:20:32;;;;;;;0.43;0.43;;;;;;;10.34;61.20;101542.13;4992188;28;20097;-74
2022/04/27 05:23:03;;;;;;;1.35;0.50;;;;;;;10.30;61.59;101539.34;4992342;28;20122;-75
2022/04/27 05:25:33;;;;;;;3.88;1.02;;;;;;;10.29;61.48;101543.63;4985032;28;20065;-75
2022/04/27 05:28:03;;;;;;;1.25;0.70;;;;;;;10.24;61.87;101533.06;4972803;28;20066;-73
2022/04/27 05:33:19;;;;;;;3.78;0.80;;;;;;;10.16;61.96;101537.00;4972618;28;20057;-75
2022/04/27 05:35:47;;;;;;;1.33;0.70;;;;;;;10.12;61.29;101535.09;4972152;28;20050;-77
2022/04/27 05:38:16;;;;;;;4.25;1.10;;;;;;;10.06;61.97;101535.72;4972818;28;20106;-77
2022/04/27 05:40:44;;;;;;;1.35;0.65;;;;;;;10.04;62.17;101533.88;4972573;28;20055;-75
2022/04/27 05:43:16;;;;;;;7.97;0.63;;;;;;;10.00;62.16;101535.44;4972177;28;20051;-77
2022/04/27 05:45:45;;;;;;;1.02;0.70;;;;;;;9.97;63.33;101518.91;4971641;28;20129;-79
2022/04/27 05:48:13;;;;;;;1.65;0.70;;;;;;;9.94;64.77;101521.34;4972282;28;20413;-76
2022/04/27 05:50:49;;;;;;;1.75;0.70;;;;;;;9.89;65.99;101530.59;4972271;28;20428;-75
2022/04/27 05:53:18;;;;;;;2.92;0.60;;;;;;;9.84;66.19;101528.69;4974792;28;20114;-76
2022/04/27 05:55:46;;;;;;;1.45;0.60;;;;;;;9.80;65.81;101524.22;4972117;28;20106;-75
2022/04/27 05:58:16;;;;;;;2.28;0.75;;;;;;;9.78;65.10;101518.09;4972521;28;20050;-75
2022/04/27 06:00:46;;;;;;;3.83;0.65;;;;;;;9.74;65.64;101523.94;4972067;28;20050;-76
2022/04/27 06:03:14;;;;;;;4.55;0.60;;;;;;;9.71;67.09;101516.06;4971610;28;20130;-74
2022/04/27 06:05:42;;;;;;;8.10;1.25;;;;;;;9.68;67.18;101515.91;4971409;28;20861;-76
2022/04/27 06:08:11;;;;;;;4.15;1.50;;;;;;;9.65;67.52;101510.59;4971411;28;20446;-77
2022/04/27 06:10:39;;;;;;;4.45;1.60;;;;;;;9.61;67.90;101511.28;4971160;28;20047;-76
2022/04/27 06:13:08;;;;;;;7.22;2.03;;;;;;;9.58;66.73;101500.81;4971630;28;20051;-76
2022/04/27 06:15:38;;;;;;;3.38;1.15;;;;;;;9.53;67.45;101503.19;4973062;28;20078;-76
2022/04/27 06:18:07;;;;;;;3.70;1.55;;;;;;;9.47;67.00;101495.16;4973522;28;20141;-76
2022/04/27 06:20:35;;;;;;;5.80;1.10;;;;;;;9.41;66.51;101493.19;4971792;28;20050;-77
2022/04/27 06:23:04;;;;;;;3.15;1.05;;;;;;;9.37;66.03;101499.03;4971407;28;20062;-76
2022/04/27 06:25:34;;;;;;;2.42;1.08;;;;;;;9.31;66.79;101492.69;4972759;28;20117;-76
2022/04/27 06:28:02;;;;;;;3.95;0.88;;;;;;;9.25;67.96;101502.72;4971675;28;20266;-74
2022/04/27 06:30:32;;;;;;;3.55;1.05;;;;;;;9.14;69.64;101502.19;4972007;28;20211;-75
2022/04/27 06:33:02;;;;;;;3.63;1.02;;;;;;;9.07;72.47;101501.06;4971504;28;20155;-76
2022/04/27 06:35:31;;;;;;;3.28;0.95;;;;;;;9.01;73.15;101498.16;4971446;28;20086;-75
2022/04/27 06:37:59;;;;;;;2.88;0.80;;;;;;;8.99;73.57;101500.66;4971198;28;20046;-76
2022/04/27 06:40:28;;;;;;;1.65;0.77;;;;;;;9.00;73.96;101502.47;4971743;28;20047;-76
2022/04/27 06:42:57;;;;;;;5.30;1.15;;;;;;;9.01;74.32;101495.59;4971264;28;20132;-75
2022/04/27 06:45:32;;;;;;;2.90;0.98;;;;;;;9.02;73.46;101499.94;4971425;28;20504;-76
2022/04/27 06:48:02;;;;;;;1.02;0.73;;;;;;;9.00;72.79;101496.38;4971443;28;20055;-75
2022/04/27 06:50:31;;;;;;;1.00;0.70;;;;;;;8.89;72.76;101493.31;4973488;28;20042;-76
2022/04/27 06:53:00;;;;;;;1.55;0.65;;;;;;;8.88;74.08;101501.84;4971760;28;20576;-76
2022/04/27 06:55:29;;;;;;;2.33;0.80;;;;;;;8.85;74.26;101504.28;4970627;28;20051;-75
2022/04/27 06:57:57;;;;;;;1.90;1.08;;;;;;;8.78;75.17;101502.22;4971437;28;20133;-75
2022/04/27 07:00:27;;;;;;;1.48;0.80;;;;;;;8.74;74.40;101506.34;4971075;28;20050;-76
2022/04/27 07:02:55;;;;;;;1.58;0.70;;;;;;;8.72;73.95;101504.50;4970773;28;20049;-76
2022/04/27 07:05:27;;;;;;;1.10;0.77;;;;;;;8.71;75.42;101502.75;4971028;28;20125;-75
2022/04/27 07:07:55;;;;;;;1.95;0.75;;;;;;;8.71;74.26;101508.78;4970820;28;20058;-76
2022/04/27 07:10:24;;;;;;;2.90;0.73;;;;;;;8.73;73.42;101498.53;4970498;28;20054;-77
2022/04/27 07:12:52;;;;;;;2.10;0.85;;;;;;;8.77;73.66;101508.19;4970887;28;20122;-77
2022/04/27 07:15:23;;;;;;;1.17;0.68;;;;;;;8.77;73.09;101498.78;4970833;28;20101;-77
2022/04/27 07:17:51;;;;;;;1.90;0.60;;;;;;;8.77;73.53;101497.88;4970647;28;20058;-77
2022/04/27 07:20:19;;;;;;;1.98;0.80;;;;;;;8.75;72.33;101484.91;4969883;28;20485;-77
2022/04/27 07:22:50;;;;;;;1.55;0.70;;;;;;;8.75;73.00;101489.16;4969934;28;20051;-77
2022/04/27 07:25:19;;;;;;;0.70;0.55;;;;;;;8.75;72.58;101487.50;4968715;28;20095;-76
2022/04/27 07:27:48;;;;;;;1.33;0.70;;;;;;;8.76;73.35;101496.09;4951177;29;20061;-76
2022/04/27 07:30:16;;;;;;;1.80;0.60;;;;;;;8.76;73.72;101481.50;4951528;29;20047;-76
2022/04/27 07:32:47;;;;;;;2.38;0.75;;;;;;;8.77;74.00;101487.53;4951124;29;20110;-77
2022/04/27 07:35:15;;;;;;;1.58;0.80;;;;;;;8.77;74.44;101479.81;4951153;29;20055;-77
2022/04/27 07:37:44;;;;;;;7.00;0.60;;;;;;;8.69;76.17;101484.59;4957357;28;20050;-76
2022/04/27 07:40:15;;;;;;;0.85;0.60;;;;;;;8.58;76.93;101486.63;4970462;28;20102;-76
2022/04/27 07:42:43;;;;;;;1.73;0.68;;;;;;;8.50;76.87;101484.53;4969809;28;20101;-76
2022/04/27 07:45:11;;;;;;;2.45;1.17;;;;;;;8.48;76.62;101479.28;4970063;28;20055;-76
2022/04/27 07:47:41;;;;;;;5.68;1.17;;;;;;;8.50;76.02;101477.66;4970535;28;20058;-77
2022/04/27 07:50:11;;;;;;;2.67;1.10;;;;;;;8.52;75.67;101476.03;4973403;28;20631;-77
2022/04/27 07:52:40;;;;;;;2.17;1.27;;;;;;;8.56;76.61;101474.47;4969549;28;20150;-79
2022/04/27 07:55:10;;;;;;;1.20;0.63;;;;;;;8.56;76.36;101477.94;4970512;28;20046;-77
2022/04/27 07:57:41;;;;;;;3.67;1.75;;;;;;;8.55;74.96;101483.94;4969970;28;20490;-78
2022/04/27 08:00:11;;;;;;;3.08;1.25;;;;;;;8.54;75.94;101479.59;4969776;28;20497;-76
2022/04/27 08:02:40;;;;;;;3.95;1.20;;;;;;;8.49;76.20;101478.44;4969328;28;20061;-76
2022/04/27 08:05:10;;;;;;;3.00;1.13;;;;;;;8.47;77.66;101474.91;4969766;28;20051;-75
2022/04/27 08:07:39;;;;;;;2.17;0.95;;;;;;;8.45;78.66;101479.09;4969074;28;20093;-76
2022/04/27 08:10:12;;;;;;;3.05;1.00;;;;;;;8.45;78.42;101479.09;4965366;28;20559;-75
2022/04/27 08:12:46;;;;;;;2.47;1.17;;;;;;;8.45;77.49;101484.25;4931192;29;20114;-76
2022/04/27 08:15:15;;;;;;;2.95;0.88;;;;;;;8.45;76.40;101484.25;4931914;29;20520;-76
2022/04/27 08:17:58;;;;;;;1.15;0.85;;;;;;;8.41;77.86;101472.06;4931470;29;20131;-77
2022/04/27 08:23:15;;;;;;;1.30;0.68;;;;;;;8.49;77.84;101473.28;4930915;29;20083;-76
2022/04/27 08:25:44;;;;;;;1.90;1.00;;;;;;;8.51;77.72;101473.38;4945466;28;20067;-76
2022/04/27 08:28:16;;;;;;;2.35;1.00;;;;;;;8.52;78.33;101475.13;4968943;28;20059;-77
2022/04/27 08:30:46;;;;;;;1.30;0.70;;;;;;;8.53;77.33;101476.94;4969509;28;20070;-76
2022/04/27 08:33:15;;;;;;;2.30;0.50;;;;;;;8.54;78.87;101471.84;4969596;28;20113;-77
2022/04/27 08:35:44;;;;;;;2.58;1.15;;;;;;;8.55;78.54;101459.84;4969200;28;20090;-76
2022/04/27 08:38:13;;;;;;;3.67;0.98;;;;;;;8.55;78.73;101465.00;4985824;28;20104;-75
2022/04/27 08:40:44;;;;;;;6.68;0.90;;;;;;;8.52;78.92;101450.25;4988867;28;20061;-76
2022/04/27 08:43:15;;;;;;;3.92;1.25;;;;;;;8.57;79.53;101455.63;4988860;28;20790;-75
2022/04/27 08:45:45;;;;;;;4.97;1.30;;;;;;;8.57;79.04;101451.34;4988932;28;20483;-76
2022/04/27 08:48:16;;;;;;;2.67;1.02;;;;;;;8.59;79.99;101438.53;4991917;28;20050;-76
2022/04/27 08:50:44;;;;;;;3.08;1.88;;;;;;;8.59;80.12;101442.00;4988441;28;20492;-75
2022/04/27 08:53:13;;;;;;;2.40;1.05;;;;;;;8.59;79.48;101441.13;4988434;28;20051;-76
2022/04/27 08:55:42;;;;;;;5.40;1.70;;;;;;;8.59;79.08;101443.69;4988255;28;20054;-76
2022/04/27 08:58:15;;;;;;;1.85;1.10;;;;;;;8.59;80.19;101446.28;4988899;28;20089;-76
2022/04/27 09:00:44;;;;;;;2.30;0.82;;;;;;;8.56;79.49;101439.25;4988618;28;20050;-76
2022/04/27 09:03:29;;;;;;;2.42;0.93;;;;;;;8.56;80.04;101441.81;4988248;28;20085;-76
2022/04/27 09:06:00;;;;;;;2.05;0.80;;;;;;;8.59;79.75;101441.13;4988845;28;20050;-75
2022/04/27 09:08:38;;;;;;;5.68;1.17;;;;;;;8.55;80.32;101432.34;4988288;28;20058;-75
2022/04/27 09:11:18;;;;;;;3.45;1.00;;;;;;;8.50;80.11;101436.41;4988285;28;20050;-75
2022/04/27 09:13:53;;;;;;;2.17;0.77;;;;;;;8.45;80.69;101436.97;4986897;28;20054;-75
2022/04/27 09:16:24;;;;;;;2.83;0.85;;;;;;;8.46;82.66;101439.63;4986532;28;20050;-75
2022/04/27 09:22:03;;;;;;;3.00;1.10;;;;;;;8.45;88.28;101436.97;4988501;28;20693;-76
2022/04/27 09:24:48;;;;;;;3.00;1.30;;;;;;;8.46;88.58;101428.44;4988710;28;20053;-77
2022/04/27 09:27:19;;;;;;;3.30;1.38;;;;;;;8.48;87.81;101440.59;4968855;28;20058;-76
2022/04/27 09:29:58;;;;;;;2.60;0.95;;;;;;;8.49;87.56;101432.03;4983018;28;20057;-77
2022/04/27 09:32:27;;;;;;;3.83;1.25;;;;;;;8.52;87.38;101429.63;4980834;28;20591;-76
2022/04/27 09:34:56;;;;;;;2.25;1.08;;;;;;;8.55;88.01;101428.88;4984333;28;20101;-76
2022/04/27 09:37:27;;;;;;;2.58;1.10;;;;;;;8.55;87.98;101431.47;4988562;28;20065;-76
2022/04/27 09:40:04;;;;;;;5.43;1.23;;;;;;;8.58;88.91;101429.91;4991571;28;20427;-75
2022/04/27 09:42:34;;;;;;;0.93;0.60;;;;;;;8.62;88.17;101424.91;4991459;28;20089;-76
2022/04/27 09:45:18;;;;;;;3.17;1.02;;;;;;;8.57;89.63;101430.72;4992189;28;20116;-75
2022/04/27 09:47:48;;;;;;;4.20;0.90;;;;;;;8.55;90.85;101424.59;4973824;28;20054;-75
2022/04/27 09:50:17;;;;;;;2.50;1.13;;;;;;;8.51;90.06;101430.41;4987228;28;20138;-75
2022/04/27 09:52:45;;;;;;;1.80;0.90;;;;;;;8.49;90.63;101428.56;4991633;28;20050;-74
2022/04/27 09:55:14;;;;;;;1.55;1.08;;;;;;;8.50;93.56;101425.19;4992544;28;20070;-75
2022/04/27 09:57:44;;;;;;;2.17;0.65;;;;;;;8.52;94.53;101426.13;4991673;28;20058;-76
2022/04/27 10:00:14;;;;;;;2.42;0.93;;;;;;;8.51;95.82;101420.09;4991820;28;20050;-75
2022/04/27 10:02:47;;;;;;;3.33;1.10;;;;;;;8.53;97.69;101425.34;4991436;28;20107;-75
2022/04/27 10:05:16;;;;;;;1.52;0.88;;;;;;;8.52;99.80;101429.63;4992079;28;20105;-76
2022/04/27 10:07:46;;;;;;;1.92;0.70;;;;;;;8.54;100.00;101421.94;4991151;28;20042;-76
2022/04/27 10:10:18;;;;;;;3.85;1.35;;;;;;;8.57;100.00;101422.09;4991632;28;20107;-75
2022/04/27 10:12:48;;;;;;;2.33;1.35;;;;;;;8.57;100.00;101428.13;4990934;28;20078;-76
2022/04/27 10:15:16;;;;;;;5.32;1.40;;;;;;;8.57;100.00;101425.56;4992085;28;20047;-76
2022/04/27 10:17:47;;;;;;;3.35;1.30;;;;;;;8.59;100.00;101426.53;4991699;28;20082;-75
2022/04/27 10:20:34;;;;;;;4.55;1.20;;;;;;;8.61;99.90;101424.00;4991381;28;20050;-76
2022/04/27 10:23:24;;;;;;;3.20;1.42;;;;;;;8.62;100.00;101424.91;4991107;28;20050;-75
2022/04/27 10:26:30;;;;;;;2.45;1.27;;;;;;;8.62;100.00;101430.06;4980247;28;20052;-75
2022/04/27 10:29:01;;;;;;;3.33;1.30;;;;;;;8.62;100.00;101425.78;4911331;29;20605;-75
2022/04/27 10:32:05;;;;;;;2.85;1.20;;;;;;;8.63;100.00;101427.53;4946706;28;20055;-75
2022/04/27 10:34:35;;;;;;;2.67;1.00;;;;;;;8.64;100.00;101424.16;4952513;28;20540;-75
2022/04/27 10:37:04;;;;;;;4.85;1.48;;;;;;;8.64;100.00;101428.44;4951998;29;20083;-75
2022/04/27 10:39:34;;;;;;;7.70;2.08;;;;;;;8.65;100.00;101436.22;4952218;29;20051;-75
2022/04/27 10:42:35;;;;;;;4.18;1.55;;;;;;;8.64;100.00;101425.88;4952080;28;20047;-74
2022/04/27 10:45:08;;;;;;;2.83;1.35;;;;;;;8.63;100.00;101427.53;4955165;29;20083;-75
2022/04/27 10:47:38;;;;;;;2.47;1.23;;;;;;;8.64;100.00;101433.59;4951844;29;20498;-75
2022/04/27 10:50:28;;;;;;;5.32;1.52;;;;;;;8.60;100.00;101432.56;4951944;28;20394;-75
2022/04/27 10:53:00;;;;;;;4.82;1.63;;;;;;;8.50;100.00;101436.41;4951727;29;20054;-76
2022/04/27 10:55:59;;;;;;;3.70;1.20;;;;;;;8.42;100.00;101437.69;4951385;29;20051;-75
2022/04/27 10:58:42;;;;;;;2.17;1.10;;;;;;;8.38;100.00;101438.31;4873609;29;20496;-75
2022/04/27 11:01:34;;;;;;;4.90;1.38;;;;;;;8.38;100.00;101440.91;4943094;29;20055;-75
2022/04/27 11:04:11;;;;;;;5.63;1.45;;;;;;;8.42;100.00;101436.81;4951688;28;20055;-75
2022/04/27 11:07:14;;;;;;;2.47;1.38;;;;;;;8.44;100.00;101435.22;4951286;29;20420;-76
2022/04/27 11:10:12;;;;;;;3.03;1.25;;;;;;;8.47;100.00;101438.81;4951321;29;20051;-76
2022/04/27 11:12:42;;;;;;;2.35;1.23;;;;;;;8.50;100.00;101438.09;4951034;29;20039;-75
2022/04/27 11:15:12;;;;;;;5.68;1.10;;;;;;;8.50;100.00;101431.25;4951794;29;20771;-76
2022/04/27 11:17:42;;;;;;;2.25;0.98;;;;;;;8.52;100.00;101439.94;4951588;29;20051;-76
2022/04/27 11:20:31;;;;;;;2.90;1.20;;;;;;;8.52;100.00;101439.94;4951541;29;20047;-76
2022/04/27 11:23:02;;;;;;;1.65;1.00;;;;;;;8.53;100.00;101433.06;4951117;29;20051;-77
2022/04/27 11:25:35;;;;;;;1.88;1.02;;;;;;;8.51;100.00;101440.72;4953229;28;20047;-76
2022/04/27 11:28:05;;;;;;;2.90;1.17;;;;;;;8.52;100.00;101436.44;4951208;29;20055;-76
2022/04/27 11:30:34;;;;;;;3.28;1.40;;;;;;;8.53;100.00;101440.81;4951041;29;20509;-76
2022/04/27 11:33:04;;;;;;;3.00;1.05;;;;;;;8.52;100.00;101437.34;4951262;29;20086;-76
2022/04/27 11:35:46;;;;;;;4.07;1.10;;;;;;;8.50;100.00;101441.56;4950777;29;20540;-75
2022/04/27 11:38:19;;;;;;;1.07;0.80;;;;;;;8.47;100.00;101431.06;4951101;29;20047;-75
2022/04/27 11:40:51;;;;;;;2.88;0.90;;;;;;;8.48;100.00;101443.16;4950881;28;20376;-75
2022/04/27 11:43:25;;;;;;;1.77;1.10;;;;;;;8.47;100.00;101440.50;4953848;29;20066;-76
2022/04/27 11:45:54;;;;;;;3.92;0.88;;;;;;;8.45;100.00;101432.69;4951186;29;20053;-76
2022/04/27 11:48:22;;;;;;;2.83;1.00;;;;;;;8.41;100.00;101435.94;4950418;29;20545;-76
2022/04/27 11:50:52;;;;;;;1.42;0.75;;;;;;;8.37;100.00;101439.16;4951023;28;20580;-77
2022/04/27 11:53:20;;;;;;;2.03;0.80;;;;;;;8.37;100.00;101428.81;4949893;29;20134;-76
2022/04/27 11:55:53;;;;;;;1.60;0.80;;;;;;;8.36;100.00;101427.03;4950786;29;20519;-77
2022/04/27 11:58:26;;;;;;;5.70;0.98;;;;;;;8.38;100.00;101430.59;4947103;29;20608;-77
2022/04/27 12:00:57;;;;;;;;;;;;;;;8.36;100.00;101427.03;4950553;28;20581;-76
2022/04/27 12:03:26;;;;;;;3.22;1.13;;;;;;;8.36;100.00;101427.03;4949449;28;19930;-75
2022/04/27 12:05:56;;;;;;;4.30;0.93;;;;;;;8.37;100.00;101423.66;4950207;28;20761;-76